createdAt,value
2023-03-16T00:00:35.205Z,95.03
2023-03-16T00:03:05.058Z,95.40
2023-03-16T00:05:33.473Z,95.35
2023-03-16T00:08:01.461Z,95.53
2023-03-16T00:10:29.824Z,95.90
2023-03-16T00:12:58.716Z,96.00
2023-03-16T00:15:26.765Z,96.51
2023-03-16T00:17:55.011Z,96.31
2023-03-16T00:20:24.496Z,96.50
2023-03-16T00:22:52.739Z,96.70
2023-03-16T00:25:20.854Z,96.55
2023-03-16T00:27:48.897Z,96.72
2023-03-16T00:30:17.521Z,96.91
2023-03-16T00:32:45.842Z,97.00
2023-03-16T00:35:14.019Z,96.76
2023-03-16T00:37:44.325Z,96.48
2023-03-16T00:40:13.926Z,96.07
2023-03-16T00:42:42.217Z,96.13
2023-03-16T00:45:11.925Z,95.98
2023-03-16T00:47:40.161Z,96.02
2023-03-16T00:50:09.554Z,95.89
2023-03-16T00:52:37.824Z,96.09
2023-03-16T00:55:08.626Z,96.48
2023-03-16T00:57:37.011Z,96.46
2023-03-16T01:00:13.050Z,96.27
2023-03-16T01:02:42.186Z,96.36
2023-03-16T01:05:11.281Z,96.42
2023-03-16T01:07:39.725Z,96.37
2023-03-16T01:10:10.834Z,96.49
2023-03-16T01:12:39.129Z,96.27
2023-03-16T01:15:08.327Z,96.43
2023-03-16T01:17:36.640Z,96.35
2023-03-16T01:20:08.207Z,96.66
2023-03-16T01:22:36.383Z,96.46
2023-03-16T01:25:05.804Z,96.71
2023-03-16T01:27:36.580Z,96.84
2023-03-16T01:30:05.852Z,96.72
2023-03-16T01:32:34.561Z,96.72
2023-03-16T01:35:02.829Z,96.58
2023-03-16T01:37:31.806Z,96.86
2023-03-16T01:40:06.409Z,96.56
2023-03-16T01:42:45.358Z,96.39
2023-03-16T01:45:46.723Z,96.67
2023-03-16T01:48:15.805Z,96.52
2023-03-16T01:50:44.490Z,96.64
2023-03-16T01:53:13.364Z,96.71
2023-03-16T01:55:43.586Z,97.08
2023-03-16T01:58:14.640Z,97.15
2023-03-16T02:00:45.789Z,97.34
2023-03-16T02:03:23.734Z,97.69
2023-03-16T02:06:14.685Z,97.83
2023-03-16T02:08:50.278Z,97.40
2023-03-16T02:11:18.736Z,97.47
2023-03-16T02:14:07.484Z,97.46
2023-03-16T02:16:35.859Z,97.19
2023-03-16T02:19:07.936Z,97.47
2023-03-16T02:21:43.679Z,97.54
2023-03-16T02:24:12.234Z,97.37
2023-03-16T02:26:45.642Z,97.30
2023-03-16T02:29:30.885Z,97.30
2023-03-16T02:32:02.916Z,97.56
2023-03-16T02:34:31.472Z,97.36
2023-03-16T02:37:00.912Z,97.45
2023-03-16T02:39:29.842Z,97.63
2023-03-16T02:41:58.151Z,97.49
2023-03-16T02:44:29.009Z,97.55
2023-03-16T02:47:04.856Z,97.70
2023-03-16T02:49:37.685Z,97.65
2023-03-16T02:52:07.332Z,97.41
2023-03-16T02:54:35.824Z,97.59
2023-03-16T02:57:05.106Z,97.81
2023-03-16T02:59:34.406Z,97.68
2023-03-16T03:02:04.246Z,97.72
2023-03-16T03:04:33.374Z,98.09
2023-03-16T03:07:04.970Z,97.99
2023-03-16T03:09:43.381Z,97.90
2023-03-16T03:12:13.204Z,97.86
2023-03-16T03:14:41.230Z,97.88
2023-03-16T03:17:13.467Z,98.16
2023-03-16T03:19:42.209Z,98.27
2023-03-16T03:22:10.747Z,98.67
2023-03-16T03:24:38.948Z,99.12
2023-03-16T03:27:07.383Z,99.10
2023-03-16T03:29:38.843Z,98.71
2023-03-16T03:32:08.209Z,98.60
2023-03-16T03:34:38.327Z,98.60
2023-03-16T03:37:07.042Z,98.58
2023-03-16T03:39:36.134Z,98.67
2023-03-16T03:42:04.575Z,98.50
2023-03-16T03:44:34.981Z,98.48
2023-03-16T03:47:03.642Z,98.75
2023-03-16T03:49:32.494Z,98.83
2023-03-16T03:52:05.038Z,98.50
2023-03-16T03:54:33.553Z,98.77
2023-03-16T03:57:07.069Z,98.62
2023-03-16T03:59:42.528Z,98.53
2023-03-16T04:02:11.259Z,98.41
2023-03-16T04:04:45.711Z,98.58
2023-03-16T04:07:16.659Z,98.46
2023-03-16T04:09:46.316Z,98.69
2023-03-16T04:12:25.877Z,98.60
2023-03-16T04:14:54.716Z,98.60
2023-03-16T04:17:24.612Z,98.85
2023-03-16T04:19:54.029Z,98.82
2023-03-16T04:22:23.952Z,98.93
2023-03-16T04:24:53.376Z,98.75
2023-03-16T04:27:22.613Z,98.83
2023-03-16T04:29:50.967Z,98.60
2023-03-16T04:32:19.545Z,98.97
2023-03-16T04:34:48.379Z,98.93
2023-03-16T04:37:18.359Z,98.63
2023-03-16T04:39:48.016Z,98.80
2023-03-16T04:42:16.160Z,98.82
2023-03-16T04:44:45.263Z,99.03
2023-03-16T04:47:16.834Z,98.81
2023-03-16T04:49:46.740Z,98.68
2023-03-16T04:52:15.809Z,98.81
2023-03-16T04:54:44.464Z,98.82
2023-03-16T04:57:19.315Z,98.90
2023-03-16T04:59:50.297Z,98.81
2023-03-16T05:02:25.120Z,98.94
2023-03-16T05:04:53.658Z,98.83
2023-03-16T05:07:21.948Z,98.94
2023-03-16T05:09:54.900Z,98.93
2023-03-16T05:12:24.854Z,98.79
2023-03-16T05:14:57.716Z,98.95
2023-03-16T05:17:38.268Z,98.83
2023-03-16T05:20:08.485Z,98.78
2023-03-16T05:22:42.079Z,98.82
2023-03-16T05:25:21.724Z,98.67
2023-03-16T05:27:55.376Z,98.68
2023-03-16T05:30:33.670Z,98.57
2023-03-16T05:33:05.800Z,98.66
2023-03-16T05:35:34.998Z,98.58
2023-03-16T05:38:08.745Z,98.41
2023-03-16T05:40:40.474Z,98.52
2023-03-16T05:43:18.306Z,98.48
2023-03-16T05:45:50.809Z,98.10
2023-03-16T05:48:21.368Z,97.98
2023-03-16T05:50:56.341Z,97.87
2023-03-16T05:53:29.405Z,97.69
2023-03-16T05:56:06.018Z,97.56
2023-03-16T05:58:38.379Z,97.42
2023-03-16T06:01:10.701Z,97.45
2023-03-16T06:03:39.128Z,97.74
2023-03-16T06:06:09.902Z,97.43
2023-03-16T06:08:51.733Z,97.37
2023-03-16T06:11:21.980Z,96.77
2023-03-16T06:13:52.065Z,96.11
2023-03-16T06:16:20.069Z,95.78
2023-03-16T06:18:48.137Z,95.84
2023-03-16T06:21:16.614Z,95.48
2023-03-16T06:23:47.590Z,95.31
2023-03-16T06:26:16.314Z,94.50
2023-03-16T06:28:46.990Z,94.56
2023-03-16T06:31:16.692Z,94.37
2023-03-16T06:33:47.073Z,94.16
2023-03-16T06:36:15.709Z,93.42
2023-03-16T06:38:48.679Z,93.39
2023-03-16T06:41:36.053Z,93.54
2023-03-16T06:44:06.126Z,93.48
2023-03-16T06:46:39.412Z,93.35
2023-03-16T06:49:09.179Z,93.45
2023-03-16T06:51:37.369Z,93.72
2023-03-16T06:54:06.072Z,92.35
2023-03-16T06:56:38.074Z,92.50
2023-03-16T06:59:07.643Z,92.19
2023-03-16T07:01:38.920Z,92.88
2023-03-16T07:04:07.641Z,93.15
2023-03-16T07:06:36.186Z,91.63
2023-03-16T07:09:05.231Z,91.17
2023-03-16T07:11:34.163Z,90.36
2023-03-16T07:14:02.660Z,90.14
2023-03-16T07:16:33.510Z,89.74
2023-03-16T07:19:06.253Z,82.84
2023-03-16T07:21:39.996Z,65.27
2023-03-16T07:24:13.052Z,54.90
2023-03-16T07:26:43.674Z,49.56
2023-03-16T07:29:17.125Z,42.32
2023-03-16T07:31:45.790Z,36.06
2023-03-16T07:34:21.281Z,30.40
2023-03-16T07:36:54.713Z,25.89
2023-03-16T07:39:25.028Z,23.85
2023-03-16T07:42:00.150Z,24.09
2023-03-16T07:45:00.503Z,25.59
2023-03-16T07:47:30.638Z,24.49
2023-03-16T07:50:05.393Z,22.51
2023-03-16T07:52:37.452Z,29.78
2023-03-16T07:55:06.916Z,32.80
2023-03-16T07:57:35.887Z,30.83
2023-03-16T08:00:05.595Z,33.97
2023-03-16T08:02:42.538Z,31.15
2023-03-16T08:06:04.712Z,32.13
2023-03-16T08:08:36.055Z,33.32
2023-03-16T08:11:04.796Z,32.34
2023-03-16T08:13:44.623Z,33.94
2023-03-16T08:16:14.002Z,37.77
2023-03-16T08:18:45.729Z,37.07
2023-03-16T08:21:15.803Z,34.30
2023-03-16T08:23:49.446Z,35.35
2023-03-16T08:26:21.539Z,34.01
2023-03-16T08:28:55.420Z,37.98
2023-03-16T08:31:25.381Z,39.96
2023-03-16T08:34:01.439Z,37.93
2023-03-16T08:36:32.208Z,39.33
2023-03-16T08:39:07.592Z,35.85
2023-03-16T08:41:47.315Z,35.61
2023-03-16T08:44:26.256Z,37.78
2023-03-16T08:46:54.791Z,40.07
2023-03-16T08:49:24.226Z,39.03
2023-03-16T08:52:01.510Z,38.90
2023-03-16T08:54:33.065Z,43.52
2023-03-16T08:57:01.385Z,44.13
2023-03-16T08:59:30.721Z,46.48
2023-03-16T09:02:00.642Z,46.36
2023-03-16T09:04:30.069Z,45.56
2023-03-16T09:07:08.389Z,39.24
2023-03-16T09:09:39.865Z,41.75
2023-03-16T09:12:08.746Z,39.42
2023-03-16T09:14:38.696Z,40.20
2023-03-16T09:17:07.843Z,38.67
2023-03-16T09:19:53.983Z,38.28
2023-03-16T09:22:24.519Z,35.45
2023-03-16T09:24:54.051Z,31.88
2023-03-16T09:27:22.689Z,30.06
2023-03-16T09:29:53.291Z,33.41
2023-03-16T09:32:21.828Z,33.02
2023-03-16T09:34:50.717Z,31.88
2023-03-16T09:37:19.665Z,33.51
2023-03-16T09:39:48.453Z,32.92
2023-03-16T09:42:24.124Z,35.49
2023-03-16T09:45:06.345Z,34.70
2023-03-16T09:47:37.780Z,29.03
2023-03-16T09:50:09.955Z,32.86
2023-03-16T09:52:45.458Z,33.53
2023-03-16T09:55:28.000Z,31.99
2023-03-16T09:57:58.876Z,30.33
2023-03-16T10:00:31.681Z,33.12
2023-03-16T10:03:12.931Z,36.57
2023-03-16T10:05:42.414Z,35.00
2023-03-16T10:08:16.892Z,30.45
2023-03-16T10:11:15.540Z,31.62
2023-03-16T10:13:49.315Z,28.49
2023-03-16T10:16:22.700Z,28.76
2023-03-16T10:18:58.678Z,32.64
2023-03-16T10:21:27.443Z,33.26
2023-03-16T10:23:57.189Z,42.02
2023-03-16T10:26:32.404Z,45.68
2023-03-16T10:29:02.392Z,48.01
2023-03-16T10:31:31.004Z,44.44
2023-03-16T10:34:06.214Z,42.53
2023-03-16T10:36:36.932Z,40.14
2023-03-16T10:39:06.859Z,38.86
2023-03-16T10:41:36.847Z,42.66
2023-03-16T10:44:12.126Z,37.36
2023-03-16T10:46:42.981Z,34.02
2023-03-16T10:49:23.387Z,35.64
2023-03-16T10:51:52.438Z,37.10
2023-03-16T10:54:28.146Z,36.43
2023-03-16T10:56:56.765Z,39.96
2023-03-16T10:59:38.967Z,41.46
2023-03-16T11:02:19.619Z,41.88
2023-03-16T11:04:47.997Z,38.36
2023-03-16T11:07:20.957Z,43.68
2023-03-16T11:09:50.056Z,43.57
2023-03-16T11:12:25.759Z,38.21
2023-03-16T11:14:56.366Z,40.16
2023-03-16T11:17:35.384Z,40.16
2023-03-16T11:20:14.650Z,38.57
2023-03-16T11:22:47.300Z,38.08
2023-03-16T11:25:30.627Z,37.09
2023-03-16T11:28:12.100Z,38.72
2023-03-16T11:30:46.320Z,38.21
2023-03-16T11:33:15.576Z,43.12
2023-03-16T11:35:58.821Z,38.70
2023-03-16T11:38:36.318Z,35.75
2023-03-16T11:41:09.374Z,34.24
2023-03-16T11:43:52.997Z,37.00
2023-03-16T11:46:24.920Z,33.98
2023-03-16T11:49:08.710Z,37.45
2023-03-16T11:51:44.627Z,34.63
2023-03-16T11:54:29.401Z,36.68
2023-03-16T11:57:01.911Z,37.03
2023-03-16T12:00:00.613Z,30.89
2023-03-16T12:02:57.934Z,32.73
2023-03-16T12:05:46.109Z,33.40
2023-03-16T12:08:26.324Z,34.62
2023-03-16T12:10:58.736Z,33.98
2023-03-16T12:13:41.068Z,32.65
2023-03-16T12:16:16.822Z,36.37
2023-03-16T12:18:51.657Z,37.09
2023-03-16T12:21:24.585Z,33.42
2023-03-16T12:23:55.345Z,35.71
2023-03-16T12:26:29.930Z,38.22
2023-03-16T12:28:59.801Z,34.40
2023-03-16T12:31:38.771Z,32.78
2023-03-16T12:34:20.720Z,38.97
2023-03-16T12:36:59.114Z,33.75
2023-03-16T12:39:43.133Z,34.13
2023-03-16T12:42:27.772Z,32.29
2023-03-16T12:44:58.639Z,30.38
2023-03-16T12:47:33.831Z,33.18
2023-03-16T12:50:11.362Z,35.04
2023-03-16T12:52:45.502Z,33.55
2023-03-16T12:55:16.465Z,37.40
2023-03-16T12:57:46.227Z,37.69
2023-03-16T13:00:16.296Z,36.47
2023-03-16T13:02:51.921Z,35.49
2023-03-16T13:05:32.951Z,38.12
2023-03-16T13:08:13.758Z,38.09
2023-03-16T13:10:42.877Z,36.31
2023-03-16T13:13:13.126Z,37.90
2023-03-16T13:15:42.217Z,36.82
2023-03-16T13:18:35.268Z,41.60
2023-03-16T13:21:17.942Z,35.55
2023-03-16T13:23:55.034Z,37.93
2023-03-16T13:26:40.573Z,42.32
2023-03-16T13:29:21.762Z,43.05
2023-03-16T13:31:50.439Z,38.32
2023-03-16T13:34:22.478Z,39.83
2023-03-16T13:36:57.246Z,36.56
2023-03-16T13:39:28.519Z,36.50
2023-03-16T13:42:03.580Z,36.80
2023-03-16T13:44:33.364Z,37.52
2023-03-16T13:47:06.071Z,35.55
2023-03-16T13:49:34.479Z,38.86
2023-03-16T13:52:05.940Z,35.59
2023-03-16T13:54:38.756Z,38.71
2023-03-16T13:57:12.748Z,36.04
2023-03-16T13:59:43.716Z,34.90
2023-03-16T14:02:19.601Z,37.95
2023-03-16T14:04:48.531Z,37.78
2023-03-16T14:07:20.902Z,35.33
2023-03-16T14:09:50.032Z,36.43
2023-03-16T14:12:20.275Z,38.32
2023-03-16T14:14:51.769Z,36.19
2023-03-16T14:17:22.109Z,38.10
2023-03-16T14:19:52.528Z,38.66
2023-03-16T14:22:25.451Z,35.87
2023-03-16T14:24:56.960Z,36.92
2023-03-16T14:27:30.643Z,36.38
2023-03-16T14:30:02.959Z,34.26
2023-03-16T14:32:33.548Z,36.85
2023-03-16T14:35:13.209Z,36.04
2023-03-16T14:37:43.764Z,38.06
2023-03-16T14:40:25.518Z,38.25
2023-03-16T14:42:54.881Z,38.98
2023-03-16T14:45:24.132Z,41.32
2023-03-16T14:47:54.007Z,37.81
2023-03-16T14:50:26.485Z,38.44
2023-03-16T14:52:58.125Z,39.41
2023-03-16T14:55:27.114Z,38.60
2023-03-16T14:57:55.786Z,41.53
2023-03-16T15:00:25.575Z,40.06
2023-03-16T15:03:00.524Z,43.50
2023-03-16T15:05:36.621Z,40.49
2023-03-16T15:08:09.545Z,41.19
2023-03-16T15:10:38.064Z,41.71
2023-03-16T15:13:17.055Z,43.35
2023-03-16T15:15:48.604Z,40.41
2023-03-16T15:18:17.352Z,44.03
2023-03-16T15:20:49.765Z,41.07
2023-03-16T15:23:19.483Z,42.82
2023-03-16T15:25:49.458Z,42.40
2023-03-16T15:28:19.508Z,40.22
2023-03-16T15:30:49.284Z,40.52
2023-03-16T15:33:18.095Z,38.92
2023-03-16T15:35:47.781Z,38.25
2023-03-16T15:38:19.294Z,39.53
2023-03-16T15:40:51.330Z,39.57
2023-03-16T15:43:22.877Z,42.24
2023-03-16T15:45:52.220Z,41.61
2023-03-16T15:48:24.412Z,39.80
2023-03-16T15:50:56.027Z,40.93
2023-03-16T15:53:31.291Z,42.55
2023-03-16T15:56:04.357Z,42.20
2023-03-16T15:58:35.179Z,43.36
2023-03-16T16:01:06.182Z,42.29
2023-03-16T16:03:35.098Z,42.35
2023-03-16T16:06:03.909Z,43.67
2023-03-16T16:08:32.404Z,42.14
2023-03-16T16:11:07.500Z,42.45
2023-03-16T16:13:44.635Z,43.45
2023-03-16T16:16:15.748Z,42.72
2023-03-16T16:18:44.264Z,43.17
2023-03-16T16:21:18.012Z,43.90
2023-03-16T16:23:46.654Z,46.55
2023-03-16T16:26:34.353Z,45.20
2023-03-16T16:29:14.279Z,47.43
2023-03-16T16:31:42.909Z,45.89
2023-03-16T16:34:14.983Z,47.60
2023-03-16T16:36:43.192Z,48.05
2023-03-16T16:39:11.946Z,47.16
2023-03-16T16:41:43.640Z,48.27
2023-03-16T16:44:18.710Z,49.38
2023-03-16T16:46:49.304Z,47.58
2023-03-16T16:49:24.537Z,48.77
2023-03-16T16:51:54.072Z,48.10
2023-03-16T16:54:24.121Z,49.84
2023-03-16T16:56:56.365Z,49.27
2023-03-16T16:59:27.456Z,50.24
2023-03-16T17:01:56.686Z,49.90
2023-03-16T17:04:27.664Z,49.83
2023-03-16T17:06:59.832Z,51.16
2023-03-16T17:09:29.125Z,51.96
2023-03-16T17:11:59.876Z,51.01
2023-03-16T17:14:28.975Z,52.76
2023-03-16T17:16:57.750Z,53.32
2023-03-16T17:19:28.135Z,54.11
2023-03-16T17:21:58.681Z,54.90
2023-03-16T17:24:28.728Z,55.53
2023-03-16T17:27:01.643Z,55.26
2023-03-16T17:29:32.495Z,56.89
2023-03-16T17:32:00.831Z,56.21
2023-03-16T17:34:33.288Z,57.99
2023-03-16T17:37:02.824Z,58.00
2023-03-16T17:39:32.838Z,59.13
2023-03-16T17:42:05.076Z,58.96
2023-03-16T17:44:36.138Z,60.57
2023-03-16T17:47:05.094Z,60.01
2023-03-16T17:49:33.885Z,60.90
2023-03-16T17:52:02.612Z,60.65
2023-03-16T17:54:30.941Z,60.36
2023-03-16T17:56:59.962Z,60.72
2023-03-16T17:59:29.962Z,61.12
2023-03-16T18:01:58.975Z,61.57
2023-03-16T18:04:27.708Z,61.07
2023-03-16T18:06:56.785Z,61.27
2023-03-16T18:09:24.838Z,61.84
2023-03-16T18:11:53.155Z,62.53
2023-03-16T18:14:35.007Z,63.00
2023-03-16T18:17:16.304Z,63.78
2023-03-16T18:19:45.579Z,64.31
2023-03-16T18:22:19.520Z,65.31
2023-03-16T18:24:48.601Z,64.85
2023-03-16T18:27:17.366Z,64.40
2023-03-16T18:29:47.035Z,64.36
2023-03-16T18:32:22.963Z,63.98
2023-03-16T18:34:53.033Z,63.05
2023-03-16T18:37:24.564Z,62.50
2023-03-16T18:39:54.912Z,62.88
2023-03-16T18:42:25.908Z,62.12
2023-03-16T18:44:54.775Z,61.76
2023-03-16T18:47:31.541Z,62.66
2023-03-16T18:50:00.834Z,63.34
2023-03-16T18:52:32.873Z,63.25
2023-03-16T18:55:01.178Z,62.88
2023-03-16T18:57:29.943Z,62.79
2023-03-16T18:59:58.167Z,62.73
2023-03-16T19:02:34.960Z,62.53
2023-03-16T19:05:06.012Z,63.44
2023-03-16T19:07:37.518Z,63.20
2023-03-16T19:10:15.868Z,62.37
2023-03-16T19:12:44.208Z,63.82
2023-03-16T19:15:21.411Z,64.72
2023-03-16T19:17:53.649Z,63.74
2023-03-16T19:20:24.904Z,63.99
2023-03-16T19:23:01.014Z,64.04
2023-03-16T19:25:33.197Z,63.92
2023-03-16T19:28:02.147Z,63.31
2023-03-16T19:30:32.339Z,62.07
2023-03-16T19:33:03.088Z,63.24
2023-03-16T19:35:50.360Z,63.55
2023-03-16T19:38:19.768Z,63.92
2023-03-16T19:40:50.983Z,63.87
2023-03-16T19:43:21.742Z,63.39
2023-03-16T19:45:51.502Z,64.15
2023-03-16T19:48:27.390Z,65.07
2023-03-16T19:50:55.784Z,63.96
2023-03-16T19:53:24.518Z,65.13
2023-03-16T19:55:54.611Z,65.18
2023-03-16T19:58:31.171Z,64.41
2023-03-16T20:01:01.387Z,64.52
2023-03-16T20:03:34.594Z,64.01
2023-03-16T20:06:29.340Z,64.62
2023-03-16T20:08:58.019Z,63.81
2023-03-16T20:11:29.668Z,64.11
2023-03-16T20:14:00.386Z,63.13
2023-03-16T20:16:32.279Z,63.81
2023-03-16T20:19:05.339Z,65.23
2023-03-16T20:21:34.009Z,64.88
2023-03-16T20:24:02.366Z,65.87
2023-03-16T20:26:32.925Z,66.16
2023-03-16T20:29:02.055Z,66.50
2023-03-16T20:31:34.707Z,67.04
2023-03-16T20:34:04.956Z,66.58
2023-03-16T20:36:33.703Z,65.74
2023-03-16T20:39:02.042Z,66.42
2023-03-16T20:41:32.804Z,65.02
2023-03-16T20:44:02.129Z,65.35
2023-03-16T20:46:33.594Z,66.00
2023-03-16T20:49:02.357Z,66.25
2023-03-16T20:51:31.856Z,67.68
2023-03-16T20:54:00.179Z,68.36
2023-03-16T20:56:28.334Z,67.90
2023-03-16T20:58:57.045Z,67.31
2023-03-16T21:01:26.563Z,67.10
2023-03-16T21:03:57.084Z,66.91
2023-03-16T21:06:28.586Z,66.92
2023-03-16T21:08:59.831Z,66.33
2023-03-16T21:11:32.798Z,66.45
2023-03-16T21:14:00.990Z,65.61
2023-03-16T21:16:30.396Z,65.87
2023-03-16T21:18:58.978Z,65.22
2023-03-16T21:21:26.993Z,65.47
2023-03-16T21:23:55.585Z,65.67
2023-03-16T21:26:28.961Z,65.11
2023-03-16T21:29:00.468Z,65.86
2023-03-16T21:31:28.988Z,66.35
2023-03-16T21:33:57.722Z,65.67
2023-03-16T21:36:27.293Z,64.93
2023-03-16T21:38:57.437Z,64.23
2023-03-16T21:41:27.608Z,64.87
2023-03-16T21:43:56.944Z,63.22
2023-03-16T21:46:26.484Z,62.89
2023-03-16T21:48:56.429Z,62.59
2023-03-16T21:51:28.661Z,61.06
2023-03-16T21:53:58.164Z,62.23
2023-03-16T21:56:28.000Z,62.26
2023-03-16T21:58:56.089Z,62.92
2023-03-16T22:01:26.592Z,62.58
2023-03-16T22:03:57.699Z,62.22
2023-03-16T22:06:28.113Z,63.06
2023-03-16T22:08:57.567Z,62.23
2023-03-16T22:11:29.091Z,62.73
2023-03-16T22:13:59.116Z,63.36
2023-03-16T22:16:30.197Z,61.96
2023-03-16T22:18:58.840Z,61.69
2023-03-16T22:21:32.574Z,62.37
2023-03-16T22:24:01.717Z,61.86
2023-03-16T22:26:31.908Z,61.35
2023-03-16T22:29:01.665Z,59.61
2023-03-16T22:31:33.829Z,59.43
2023-03-16T22:34:03.241Z,58.88
2023-03-16T22:36:33.804Z,58.28
2023-03-16T22:39:04.813Z,58.22
2023-03-16T22:41:34.265Z,57.82
2023-03-16T22:44:03.049Z,57.22
2023-03-16T22:46:31.642Z,57.42
2023-03-16T22:48:59.937Z,55.03
2023-03-16T22:51:31.449Z,55.07
2023-03-16T22:54:02.514Z,53.42
2023-03-16T22:56:31.896Z,54.77
2023-03-16T22:59:04.249Z,53.97
2023-03-16T23:01:35.077Z,55.62
2023-03-16T23:04:03.457Z,53.41
2023-03-16T23:06:33.544Z,53.19
2023-03-16T23:09:02.303Z,51.33
2023-03-16T23:11:33.277Z,51.38
2023-03-16T23:14:04.028Z,52.27
2023-03-16T23:16:35.926Z,53.11
2023-03-16T23:19:12.517Z,50.45
2023-03-16T23:21:50.749Z,51.26
2023-03-16T23:24:19.048Z,50.09
2023-03-16T23:26:47.375Z,49.52
2023-03-16T23:29:16.998Z,49.59
2023-03-16T23:31:45.039Z,49.24
2023-03-16T23:34:14.369Z,49.83
2023-03-16T23:36:43.344Z,49.99
2023-03-16T23:39:12.294Z,49.76
2023-03-16T23:41:43.192Z,49.81
2023-03-16T23:44:16.752Z,49.46
2023-03-16T23:46:46.989Z,50.67
2023-03-16T23:49:20.537Z,50.48
2023-03-16T23:51:48.849Z,51.54
2023-03-16T23:54:20.169Z,51.38
2023-03-16T23:56:48.800Z,52.15
2023-03-16T23:59:16.869Z,52.81
